Time;durP1;ratioP1;P1;durP2;ratioP2;P2;SDS_P1;SDS_P2;PMS_P1;PMS_P2;Temp;Humidity;BMP_temperature;BMP_pressure;BME280_temperature;BME280_humidity;BME280_pressure;Samples;Min_cycle;Max_cycle;Signal;HPM_P1;HPM_P2
2020/12/02 00:02:33;;;;;;;5.78;3.00;;;6.70;71.20;;;;;;2580261;53;20960;-73
2020/12/02 00:05:24;;;;;;;5.78;2.40;;;6.70;71.20;;;;;;2329245;54;21032;-73
2020/12/02 00:08:08;;;;;;;6.62;2.95;;;6.70;71.20;;;;;;2341596;53;21449;-74
2020/12/02 00:10:37;;;;;;;4.87;2.50;;;6.70;71.10;;;;;;2589654;53;20996;-73
2020/12/02 00:13:10;;;;;;;5.70;2.97;;;6.70;71.10;;;;;;2589534;53;20944;-73
2020/12/02 00:15:37;;;;;;;4.95;2.75;;;6.70;71.10;;;;;;2345206;53;21004;-73
2020/12/02 00:18:03;;;;;;;4.53;2.00;;;6.70;71.10;;;;;;2588871;53;20952;-73
2020/12/02 00:20:29;;;;;;;4.30;2.03;;;6.70;71.00;;;;;;2343407;53;21016;-73
2020/12/02 00:22:56;;;;;;;4.43;2.08;;;6.70;71.00;;;;;;2589150;53;22119;-73
2020/12/02 00:25:22;;;;;;;5.15;2.58;;;6.70;71.00;;;;;;2591009;53;20956;-73
2020/12/02 00:27:48;;;;;;;6.00;2.67;;;6.70;71.00;;;;;;2589452;53;20936;-73
2020/12/02 00:30:15;;;;;;;4.20;1.95;;;6.70;71.00;;;;;;2348572;53;21059;-73
2020/12/02 00:32:44;;;;;;;5.10;2.42;;;6.70;71.00;;;;;;2576726;53;20961;-73
2020/12/02 00:35:15;;;;;;;4.70;2.50;;;6.70;71.00;;;;;;2589905;53;20972;-73
2020/12/02 00:37:42;;;;;;;4.95;2.45;;;6.70;71.00;;;;;;2590645;53;21012;-73
2020/12/02 00:40:08;;;;;;;4.25;2.40;;;6.70;71.00;;;;;;2342867;53;21000;-73
2020/12/02 00:42:34;;;;;;;4.32;2.25;;;6.70;71.00;;;;;;2344859;53;20949;-73
2020/12/02 00:45:00;;;;;;;5.10;2.22;;;6.70;71.00;;;;;;2589961;53;20975;-73
2020/12/02 00:47:27;;;;;;;4.80;2.62;;;6.70;71.00;;;;;;2590364;53;20983;-73
2020/12/02 00:49:54;;;;;;;5.65;3.40;;;6.70;71.00;;;;;;2343722;53;21004;-73
2020/12/02 00:52:24;;;;;;;5.55;3.05;;;6.70;71.00;;;;;;2589523;53;21025;-73
2020/12/02 00:54:50;;;;;;;5.22;3.10;;;6.70;71.10;;;;;;2590725;53;20964;-73
2020/12/02 00:57:29;;;;;;;7.55;4.20;;;6.70;71.00;;;;;;2589011;53;20940;-73
2020/12/02 00:59:56;;;;;;;8.77;4.65;;;6.80;71.20;;;;;;2582265;53;21017;-73
2020/12/02 01:02:43;;;;;;;7.57;4.12;;;6.70;71.00;;;;;;2589799;53;21040;-73
2020/12/02 01:05:12;;;;;;;6.60;3.70;;;6.70;70.90;;;;;;2332206;53;20968;-73
2020/12/02 01:07:50;;;;;;;6.62;4.30;;;6.70;71.00;;;;;;2587955;53;20920;-73
2020/12/02 01:10:16;;;;;;;8.68;5.05;;;6.70;71.00;;;;;;2342943;53;20917;-72
2020/12/02 01:12:47;;;;;;;10.63;5.47;;;6.70;70.90;;;;;;2589391;52;21468;-73
2020/12/02 01:15:19;;;;;;;8.05;5.25;;;6.70;70.80;;;;;;2343688;53;20899;-73
2020/12/02 01:18:07;;;;;;;8.30;5.28;;;6.70;70.90;;;;;;2589279;53;20949;-73
2020/12/02 01:20:33;;;;;;;9.85;5.32;;;6.70;70.90;;;;;;2342331;53;20956;-73
2020/12/02 01:23:00;;;;;;;9.75;5.37;;;6.70;71.00;;;;;;2588968;53;20921;-73
2020/12/02 01:25:26;;;;;;;9.48;5.22;;;6.70;71.10;;;;;;2589006;53;21764;-72
2020/12/02 01:28:05;;;;;;;10.93;5.93;;;6.70;71.20;;;;;;2589886;53;21690;-73
2020/12/02 01:30:32;;;;;;;9.52;5.22;;;6.70;71.20;;;;;;2343261;53;20941;-73
2020/12/02 01:32:59;;;;;;;9.70;5.22;;;6.50;71.00;;;;;;2589994;53;20973;-73
2020/12/02 01:35:29;;;;;;;10.60;5.37;;;6.70;71.20;;;;;;2343048;53;20932;-72
2020/12/02 01:38:05;;;;;;;11.20;5.30;;;6.70;71.30;;;;;;2345353;53;21177;-73
2020/12/02 01:40:34;;;;;;;9.10;5.22;;;6.70;71.30;;;;;;2587977;53;21039;-73
2020/12/02 01:43:10;;;;;;;13.82;6.60;;;6.70;71.30;;;;;;2588401;53;20995;-72
2020/12/02 01:45:41;;;;;;;8.95;4.87;;;6.70;71.40;;;;;;2344052;53;21027;-72
2020/12/02 01:53:24;;;;;;;11.27;5.90;;;6.70;71.40;;;;;;2347746;53;20966;-73
2020/12/02 01:55:57;;;;;;;12.85;5.35;;;6.80;70.90;;;;;;2584333;53;20929;-73
2020/12/02 01:58:54;;;;;;;10.52;5.68;;;6.80;71.20;;;;;;2589900;53;21841;-72
2020/12/02 02:02:13;;;;;;;12.18;5.90;;;6.80;71.30;;;;;;2575116;53;21335;-73
2020/12/02 02:04:45;;;;;;;16.08;6.57;;;6.80;71.40;;;;;;2590407;53;20969;-73
2020/12/02 02:07:17;;;;;;;13.20;6.20;;;6.80;71.30;;;;;;2589453;53;20940;-73
2020/12/02 02:09:55;;;;;;;12.90;5.93;;;6.80;71.40;;;;;;2344251;53;20980;-72
2020/12/02 02:13:12;;;;;;;14.15;6.40;;;6.80;71.40;;;;;;2561376;53;20992;-73
2020/12/02 02:15:53;;;;;;;11.48;5.97;;;6.80;71.30;;;;;;2589486;53;21064;-73
2020/12/02 02:18:21;;;;;;;12.73;6.28;;;6.80;71.50;;;;;;2588980;53;20944;-73
2020/12/02 02:20:52;;;;;;;11.25;6.12;;;6.80;71.60;;;;;;2589737;53;20980;-73
2020/12/02 02:23:18;;;;;;;12.93;6.32;;;6.80;71.50;;;;;;2346552;53;20944;-72
2020/12/02 02:26:41;;;;;;;12.15;6.20;;;6.80;71.50;;;;;;2347356;53;21750;-73
2020/12/02 02:29:19;;;;;;;13.85;6.20;;;6.80;71.50;;;;;;2342959;53;21028;-73
2020/12/02 02:32:00;;;;;;;12.15;6.25;;;6.80;71.40;;;;;;2585715;53;21005;-73
2020/12/02 02:34:28;;;;;;;12.02;6.35;;;6.80;71.50;;;;;;2310915;53;21091;-73
2020/12/02 02:36:54;;;;;;;13.20;6.75;;;6.80;71.50;;;;;;2331536;53;21004;-73
2020/12/02 02:39:22;;;;;;;13.73;6.45;;;6.80;71.40;;;;;;2319856;53;20944;-73
2020/12/02 02:41:48;;;;;;;14.52;6.40;;;6.80;71.40;;;;;;2346133;53;20972;-73
2020/12/02 02:44:14;;;;;;;14.05;6.07;;;6.90;71.50;;;;;;2343861;53;20936;-73
2020/12/02 02:46:41;;;;;;;12.05;5.95;;;6.80;71.40;;;;;;2343524;53;21413;-73
2020/12/02 02:49:07;;;;;;;12.98;5.78;;;6.80;71.40;;;;;;2589208;53;20953;-73
2020/12/02 02:51:34;;;;;;;14.95;6.75;;;6.80;71.50;;;;;;2346860;53;21738;-73
2020/12/02 02:54:00;;;;;;;13.50;6.43;;;6.80;71.50;;;;;;2342615;53;21381;-72
2020/12/02 02:56:26;;;;;;;15.57;6.10;;;6.80;71.40;;;;;;2343631;53;21644;-72
2020/12/02 02:58:52;;;;;;;15.43;6.32;;;6.80;71.40;;;;;;2589414;53;20913;-72
2020/12/02 03:01:19;;;;;;;13.55;5.93;;;6.90;71.50;;;;;;2588870;53;21008;-73
2020/12/02 03:03:45;;;;;;;17.70;6.57;;;6.80;71.40;;;;;;2346851;53;21023;-72
2020/12/02 03:06:11;;;;;;;15.05;6.75;;;6.80;71.40;;;;;;2341966;53;21004;-72
2020/12/02 03:08:38;;;;;;;14.68;6.53;;;6.80;71.40;;;;;;2342633;53;20948;-72
2020/12/02 03:11:06;;;;;;;15.27;6.78;;;6.80;71.50;;;;;;2343039;53;20952;-72
2020/12/02 03:13:43;;;;;;;16.75;7.55;;;6.80;71.50;;;;;;2343104;53;20964;-73
2020/12/02 03:17:22;;;;;;;19.20;7.12;;;6.90;71.60;;;;;;2347192;53;20948;-72
2020/12/02 03:20:11;;;;;;;12.55;5.72;;;6.80;71.50;;;;;;2590109;53;20964;-73
2020/12/02 03:22:37;;;;;;;13.13;5.87;;;6.90;71.40;;;;;;2343944;53;21003;-73
2020/12/02 03:25:03;;;;;;;16.23;7.40;;;6.90;71.50;;;;;;2347935;53;20929;-72
2020/12/02 03:27:29;;;;;;;15.25;6.43;;;6.90;71.50;;;;;;2561447;53;20921;-73
2020/12/02 03:29:56;;;;;;;15.18;6.55;;;6.90;71.50;;;;;;2346183;53;21515;-73
2020/12/02 03:32:24;;;;;;;14.90;6.43;;;6.80;71.40;;;;;;2341142;53;20976;-73
2020/12/02 03:34:50;;;;;;;15.10;6.57;;;6.80;71.40;;;;;;2348965;53;20940;-72
2020/12/02 03:37:16;;;;;;;15.43;6.53;;;6.90;71.50;;;;;;2325294;54;20989;-72
2020/12/02 03:39:43;;;;;;;14.48;6.82;;;6.90;71.50;;;;;;2588983;53;20960;-72
2020/12/02 03:42:09;;;;;;;17.70;5.97;;;6.80;71.30;;;;;;2589463;53;20976;-72
2020/12/02 03:44:37;;;;;;;17.05;6.15;;;6.80;71.40;;;;;;2575725;53;21093;-72
2020/12/02 03:47:06;;;;;;;16.73;6.95;;;6.90;71.50;;;;;;2341719;54;20968;-72
2020/12/02 03:49:32;;;;;;;17.85;7.55;;;6.80;71.50;;;;;;2346225;53;20981;-72
2020/12/02 03:51:58;;;;;;;17.45;6.72;;;6.90;71.50;;;;;;2572892;53;21139;-73
2020/12/02 03:54:25;;;;;;;14.80;6.62;;;6.80;71.50;;;;;;2589422;53;20933;-72
2020/12/02 03:56:51;;;;;;;13.85;6.47;;;6.80;71.50;;;;;;2343430;53;20968;-72
2020/12/02 03:59:17;;;;;;;18.55;8.15;;;6.80;71.50;;;;;;2341300;53;20969;-72
2020/12/02 04:01:44;;;;;;;11.93;5.30;;;6.90;71.70;;;;;;2342318;53;20953;-73
2020/12/02 04:04:11;;;;;;;14.63;6.53;;;6.90;71.60;;;;;;2587666;53;21076;-73
2020/12/02 04:06:38;;;;;;;15.30;6.70;;;6.90;71.60;;;;;;2342679;53;22082;-72
2020/12/02 04:09:04;;;;;;;15.27;7.10;;;6.90;71.50;;;;;;2342249;53;20956;-73
2020/12/02 04:11:31;;;;;;;14.13;6.28;;;6.90;71.50;;;;;;2343037;53;20940;-72
2020/12/02 04:13:57;;;;;;;13.13;5.45;;;6.90;71.40;;;;;;2343404;53;20968;-72
2020/12/02 04:16:23;;;;;;;12.40;5.50;;;6.90;71.30;;;;;;2590216;53;20992;-72
2020/12/02 04:18:53;;;;;;;12.88;5.72;;;6.90;71.30;;;;;;2347838;53;20961;-73
2020/12/02 04:21:24;;;;;;;13.75;6.40;;;6.90;71.30;;;;;;2589105;53;20960;-72
2020/12/02 04:23:52;;;;;;;10.55;4.80;;;6.90;71.40;;;;;;2580361;53;20973;-72
2020/12/02 04:26:19;;;;;;;10.65;4.78;;;6.90;71.50;;;;;;2570926;53;20933;-72
2020/12/02 04:28:46;;;;;;;12.65;5.53;;;6.90;71.60;;;;;;2347822;53;21322;-73
2020/12/02 04:31:13;;;;;;;12.88;5.75;;;6.90;71.60;;;;;;2339782;53;21012;-72
2020/12/02 04:33:39;;;;;;;12.52;5.70;;;6.90;71.60;;;;;;2561766;53;20952;-72
2020/12/02 04:36:06;;;;;;;8.35;4.20;;;6.90;71.50;;;;;;2338671;53;20964;-73
2020/12/02 04:38:32;;;;;;;9.75;4.10;;;6.90;71.30;;;;;;2590093;53;20944;-73
2020/12/02 04:41:03;;;;;;;10.23;4.60;;;6.80;71.00;;;;;;2343545;53;20984;-73
2020/12/02 04:43:35;;;;;;;9.02;4.05;;;6.90;70.90;;;;;;2342778;53;20980;-74
2020/12/02 04:46:07;;;;;;;9.63;4.43;;;6.80;71.40;;;;;;2589729;53;20948;-73
2020/12/02 04:48:33;;;;;;;12.50;4.68;;;6.80;70.80;;;;;;2343100;53;21036;-73
2020/12/02 04:51:13;;;;;;;8.88;4.25;;;6.80;70.70;;;;;;2342510;53;20948;-74
2020/12/02 04:53:41;;;;;;;13.82;5.03;;;6.70;70.50;;;;;;2346535;53;20949;-73
2020/12/02 04:56:08;;;;;;;15.25;5.32;;;6.70;70.60;;;;;;2571200;53;21072;-73
2020/12/02 04:58:36;;;;;;;14.02;5.05;;;6.70;70.60;;;;;;2579698;53;21529;-72
2020/12/02 05:07:51;;;;;;;12.52;4.85;;;6.60;70.50;;;;;;2587315;53;20956;-73
2020/12/02 05:10:20;;;;;;;10.90;4.22;;;6.60;70.20;;;;;;2323910;54;21125;-73
2020/12/02 05:12:47;;;;;;;15.48;4.75;;;6.50;70.40;;;;;;2586056;53;20912;-73
2020/12/02 05:15:28;;;;;;;12.82;5.70;;;6.50;70.60;;;;;;2347083;53;20953;-73
2020/12/02 05:19:56;;;;;;;13.75;6.12;;;6.50;70.60;;;;;;2576118;53;20940;-73
2020/12/02 05:22:23;;;;;;;16.62;5.03;;;6.50;70.50;;;;;;2346400;53;20964;-73
2020/12/02 05:24:50;;;;;;;17.10;5.62;;;6.40;70.40;;;;;;2336315;55;20973;-73
2020/12/02 05:27:20;;;;;;;16.77;5.93;;;6.40;70.50;;;;;;2345349;53;21775;-73
2020/12/02 05:29:55;;;;;;;12.10;5.32;;;6.40;70.60;;;;;;2348028;53;20945;-74
2020/12/02 05:32:24;;;;;;;11.88;5.10;;;6.30;70.60;;;;;;2312053;54;21818;-73
2020/12/02 05:34:50;;;;;;;11.73;4.85;;;6.30;70.80;;;;;;2347683;53;20937;-73
2020/12/02 05:37:34;;;;;;;12.48;5.15;;;6.30;70.90;;;;;;2342842;53;21046;-74
2020/12/02 05:40:03;;;;;;;16.10;5.95;;;6.30;71.00;;;;;;2342263;53;21774;-73
2020/12/02 05:42:41;;;;;;;14.05;5.40;;;6.30;71.10;;;;;;2342897;53;21020;-73
2020/12/02 05:45:35;;;;;;;15.38;6.12;;;6.30;71.10;;;;;;2589071;53;20966;-72
2020/12/02 05:48:01;;;;;;;13.15;5.45;;;6.30;71.00;;;;;;2342443;53;21906;-74
2020/12/02 05:50:58;;;;;;;14.32;5.50;;;6.30;71.10;;;;;;2347542;53;21016;-73
2020/12/02 05:53:39;;;;;;;13.98;5.43;;;6.30;71.10;;;;;;2350356;53;20997;-73
2020/12/02 05:56:41;;;;;;;13.45;5.07;;;6.30;71.20;;;;;;2341572;53;20980;-73
2020/12/02 05:59:09;;;;;;;14.10;5.40;;;6.30;71.20;;;;;;2341253;53;21922;-73
2020/12/02 06:01:36;;;;;;;12.43;5.32;;;6.30;71.20;;;;;;2587805;53;20972;-73
2020/12/02 06:04:02;;;;;;;14.65;5.50;;;6.30;71.30;;;;;;2348674;53;20998;-73
2020/12/02 06:06:32;;;;;;;14.13;5.35;;;6.20;71.30;;;;;;2574617;53;20949;-73
2020/12/02 06:09:03;;;;;;;11.45;5.30;;;6.20;71.30;;;;;;2344079;53;20948;-73
2020/12/02 06:11:38;;;;;;;14.85;5.50;;;6.20;71.20;;;;;;2562541;53;20999;-73
2020/12/02 06:14:14;;;;;;;14.85;5.68;;;6.30;71.30;;;;;;2575408;53;20945;-74
2020/12/02 06:16:46;;;;;;;15.32;5.57;;;6.20;71.20;;;;;;2343538;53;21377;-73
2020/12/02 06:19:45;;;;;;;16.62;6.15;;;6.30;71.30;;;;;;2588457;53;21052;-73
2020/12/02 06:22:11;;;;;;;14.82;5.68;;;6.20;71.10;;;;;;2342007;53;21003;-73
2020/12/02 06:24:46;;;;;;;16.40;6.20;;;6.30;71.20;;;;;;2590214;53;20960;-73
2020/12/02 06:27:54;;;;;;;17.52;5.78;;;6.20;71.10;;;;;;2343254;53;21568;-73
2020/12/02 06:30:21;;;;;;;15.55;6.10;;;6.30;71.00;;;;;;2587740;52;21055;-73
2020/12/02 06:33:01;;;;;;;18.08;6.28;;;6.20;71.00;;;;;;2340086;53;20980;-73
2020/12/02 06:35:29;;;;;;;20.10;6.62;;;6.20;70.90;;;;;;2343683;53;20956;-73
2020/12/02 06:38:29;;;;;;;15.68;6.18;;;6.20;70.90;;;;;;2345333;53;21134;-73
2020/12/02 06:47:28;;;;;;;16.48;5.72;;;6.00;70.40;;;;;;2337189;53;21008;-73
2020/12/02 06:50:01;;;;;;;16.92;5.37;;;6.20;70.40;;;;;;2349963;53;20996;-73
2020/12/02 06:53:23;;;;;;;17.45;5.45;;;6.20;70.80;;;;;;2580096;53;20961;-73
2020/12/02 06:56:01;;;;;;;17.98;6.62;;;6.10;70.90;;;;;;2342362;53;20929;-73
2020/12/02 06:58:29;;;;;;;15.98;5.97;;;6.10;71.00;;;;;;2341794;53;20988;-73
2020/12/02 07:01:01;;;;;;;15.98;5.87;;;6.10;71.20;;;;;;2588122;53;20964;-73
2020/12/02 07:03:43;;;;;;;21.90;6.78;;;6.10;71.30;;;;;;2343046;53;20961;-73
2020/12/02 07:06:20;;;;;;;18.30;6.80;;;6.10;71.40;;;;;;2589877;53;20973;-73
2020/12/02 07:09:12;;;;;;;16.67;6.62;;;6.10;71.30;;;;;;2587643;53;20961;-73
2020/12/02 07:11:40;;;;;;;17.87;6.18;;;6.10;71.30;;;;;;2342006;53;21072;-72
2020/12/02 07:14:16;;;;;;;15.10;5.25;;;6.10;71.40;;;;;;2559809;53;21939;-72
2020/12/02 07:16:43;;;;;;;18.45;6.60;;;6.20;71.50;;;;;;2343093;53;20981;-72
2020/12/02 07:19:13;;;;;;;19.80;7.47;;;6.20;71.50;;;;;;2342525;53;20996;-72
2020/12/02 07:23:32;;;;;;;16.67;6.18;;;6.20;71.60;;;;;;2559024;53;20992;-72
2020/12/02 07:26:02;;;;;;;19.75;6.03;;;6.20;71.40;;;;;;2583359;53;20947;-73
2020/12/02 07:28:28;;;;;;;25.37;7.32;;;6.20;71.40;;;;;;2586633;52;20936;-73
2020/12/02 07:30:54;;;;;;;18.25;6.93;;;6.20;71.50;;;;;;2326757;53;21025;-72
2020/12/02 07:33:59;;;;;;;24.08;8.07;;;6.20;71.50;;;;;;2342087;53;20934;-72
2020/12/02 07:36:28;;;;;;;17.65;6.32;;;6.30;71.60;;;;;;2583275;53;21013;-73
2020/12/02 07:39:01;;;;;;;18.00;6.40;;;6.30;71.60;;;;;;2343173;53;20913;-72
2020/12/02 07:41:27;;;;;;;16.42;5.97;;;6.30;71.60;;;;;;2342763;53;20928;-72
2020/12/02 07:43:53;;;;;;;19.35;6.50;;;6.30;71.50;;;;;;2346975;53;21024;-72
2020/12/02 07:46:21;;;;;;;14.27;5.32;;;6.30;71.50;;;;;;2346525;53;20925;-72
2020/12/02 07:48:52;;;;;;;16.83;6.15;;;6.30;71.60;;;;;;2346892;53;21056;-72
2020/12/02 07:51:26;;;;;;;18.55;5.97;;;6.30;71.70;;;;;;2321012;54;21510;-72
2020/12/02 07:54:00;;;;;;;19.02;7.32;;;6.30;71.70;;;;;;2344804;53;20984;-72
2020/12/02 07:56:31;;;;;;;73.05;28.42;;;6.40;71.80;;;;;;2582481;53;21052;-72
2020/12/02 07:59:12;;;;;;;32.90;14.75;;;6.40;71.80;;;;;;2586925;53;20951;-72
2020/12/02 08:03:37;;;;;;;18.65;8.55;;;6.40;71.70;;;;;;2587744;53;21615;-72
2020/12/02 08:07:35;;;;;;;22.65;10.10;;;6.40;71.70;;;;;;2585026;53;20959;-72
2020/12/02 08:10:02;;;;;;;16.98;6.85;;;6.40;71.50;;;;;;2577734;53;21004;-72
2020/12/02 08:12:29;;;;;;;16.80;6.22;;;6.50;71.50;;;;;;2342457;53;20992;-73
2020/12/02 08:15:06;;;;;;;14.25;5.97;;;6.40;71.30;;;;;;2339064;53;20957;-73
2020/12/02 08:17:33;;;;;;;18.42;6.10;;;6.40;71.30;;;;;;2337507;53;21029;-73
2020/12/02 08:20:00;;;;;;;17.23;6.10;;;6.40;71.30;;;;;;2583028;53;21056;-74
2020/12/02 08:22:49;;;;;;;16.42;6.45;;;6.40;71.30;;;;;;2582912;53;20943;-73
2020/12/02 08:26:17;;;;;;;16.10;6.60;;;6.50;71.40;;;;;;2339235;53;22569;-72
2020/12/02 08:28:44;;;;;;;19.10;6.40;;;6.50;71.20;;;;;;2343214;53;21032;-73
2020/12/02 08:31:27;;;;;;;19.50;6.68;;;6.40;71.30;;;;;;2337677;53;20964;-72
2020/12/02 08:34:25;;;;;;;16.90;6.62;;;6.50;71.40;;;;;;2341390;53;20960;-73
2020/12/02 08:37:40;;;;;;;17.37;6.55;;;6.50;71.30;;;;;;2586844;53;21695;-72
2020/12/02 08:40:22;;;;;;;19.08;6.40;;;6.50;71.40;;;;;;2586927;53;22344;-72
2020/12/02 08:42:49;;;;;;;17.97;6.10;;;6.50;71.40;;;;;;2586980;53;21053;-73
2020/12/02 08:45:22;;;;;;;16.80;6.30;;;6.50;71.40;;;;;;2344938;53;21064;-73
2020/12/02 08:47:55;;;;;;;13.75;5.65;;;6.50;71.40;;;;;;2337631;53;21019;-72
2020/12/02 08:50:27;;;;;;;17.08;6.53;;;6.50;71.40;;;;;;2343001;53;20984;-72
2020/12/02 08:52:54;;;;;;;15.85;5.68;;;6.50;71.60;;;;;;2543571;53;20965;-73
2020/12/02 08:55:22;;;;;;;17.27;6.43;;;6.50;71.70;;;;;;2343366;53;20956;-72
2020/12/02 08:57:49;;;;;;;16.08;6.43;;;6.50;71.80;;;;;;2574215;53;22613;-72
2020/12/02 09:00:20;;;;;;;16.08;5.90;;;6.50;71.80;;;;;;2329102;54;21881;-72
2020/12/02 09:02:46;;;;;;;20.27;7.22;;;6.60;72.00;;;;;;2579168;53;21019;-73
2020/12/02 09:05:13;;;;;;;18.12;7.20;;;6.60;72.00;;;;;;2340808;53;21059;-73
2020/12/02 09:07:40;;;;;;;18.65;7.05;;;6.60;71.90;;;;;;2587167;53;21693;-72
2020/12/02 09:10:07;;;;;;;16.10;6.85;;;6.60;71.80;;;;;;2331594;53;20947;-72
2020/12/02 09:12:34;;;;;;;16.45;6.87;;;6.60;71.80;;;;;;2341084;53;20964;-72
2020/12/02 09:15:00;;;;;;;16.23;6.50;;;6.70;71.90;;;;;;2587199;53;20991;-73
2020/12/02 09:17:27;;;;;;;16.58;5.60;;;6.70;72.00;;;;;;2585901;53;21056;-72
2020/12/02 09:19:54;;;;;;;16.92;6.75;;;6.70;72.00;;;;;;2585406;53;21035;-72
2020/12/02 09:22:20;;;;;;;16.00;6.43;;;6.70;72.00;;;;;;2339117;53;20983;-72
2020/12/02 09:24:47;;;;;;;16.48;6.68;;;6.70;71.90;;;;;;2340383;53;21008;-72
2020/12/02 09:27:13;;;;;;;13.95;6.45;;;6.70;71.80;;;;;;2586105;53;20983;-72
2020/12/02 09:29:40;;;;;;;15.93;6.10;;;6.70;72.50;;;;;;2585689;53;21438;-73
2020/12/02 09:32:06;;;;;;;14.35;6.28;;;6.80;71.90;;;;;;2585201;53;21359;-73
2020/12/02 09:34:35;;;;;;;16.42;7.03;;;6.80;72.00;;;;;;2343445;53;21024;-73
2020/12/02 09:37:01;;;;;;;15.23;6.53;;;6.80;72.10;;;;;;2343303;53;20945;-72
2020/12/02 09:39:28;;;;;;;15.35;6.85;;;6.80;72.10;;;;;;2343274;53;21400;-72
2020/12/02 09:44:00;;;;;;;16.70;6.50;;;6.90;72.20;;;;;;2331653;53;20992;-73
2020/12/02 09:46:29;;;;;;;12.75;5.40;;;6.90;71.80;;;;;;2341607;53;20976;-73
2020/12/02 09:48:55;;;;;;;17.55;7.07;;;6.90;72.20;;;;;;2341949;53;20965;-72
2020/12/02 09:51:27;;;;;;;17.42;6.87;;;7.00;72.30;;;;;;2340860;53;20933;-73
2020/12/02 09:53:55;;;;;;;14.25;5.28;;;7.00;72.30;;;;;;2589034;53;20978;-73
2020/12/02 09:56:21;;;;;;;14.80;6.62;;;7.00;72.20;;;;;;2329793;53;21045;-72
2020/12/02 09:58:47;;;;;;;12.00;6.00;;;7.00;72.20;;;;;;2341323;53;21008;-72
2020/12/02 10:01:28;;;;;;;13.65;6.15;;;7.00;72.10;;;;;;2340832;53;21008;-73
2020/12/02 10:07:27;;;;;;;16.23;6.82;;;7.10;72.00;;;;;;2342536;53;21492;-73
2020/12/02 10:11:54;;;;;;;15.45;7.05;;;7.10;71.40;;;;;;2340802;53;21017;-72
2020/12/02 10:14:53;;;;;;;17.50;6.90;;;7.10;71.60;;;;;;2341835;53;20944;-73
2020/12/02 10:19:20;;;;;;;16.20;6.85;;;7.10;71.40;;;;;;2585819;53;21076;-72
2020/12/02 10:23:54;;;;;;;14.63;5.70;;;7.20;71.70;;;;;;2584649;53;21040;-72
2020/12/02 10:26:47;;;;;;;15.50;6.05;;;7.20;71.70;;;;;;2584721;53;21601;-72
2020/12/02 10:29:33;;;;;;;16.25;6.43;;;7.20;71.60;;;;;;2339894;53;22125;-72
2020/12/02 10:33:52;;;;;;;15.05;7.10;;;7.20;71.40;;;;;;2342626;53;20982;-72
2020/12/02 10:36:20;;;;;;;16.33;7.05;;;7.20;71.00;;;;;;2583697;52;21057;-72
2020/12/02 10:38:49;;;;;;;16.05;6.97;;;7.20;71.50;;;;;;2584264;53;20993;-73
2020/12/02 10:46:18;;;;;;;16.40;7.45;;;7.20;71.60;;;;;;2342086;53;20956;-72
2020/12/02 10:49:05;;;;;;;15.55;6.87;;;7.20;71.00;;;;;;2588060;53;20965;-72
2020/12/02 10:51:36;;;;;;;14.10;6.78;;;7.30;71.30;;;;;;2340744;53;21469;-72
2020/12/02 10:54:08;;;;;;;17.40;7.20;;;7.20;71.30;;;;;;2320526;53;21720;-73
2020/12/02 10:56:35;;;;;;;15.30;7.35;;;7.20;71.40;;;;;;2340694;53;21067;-73
2020/12/02 10:59:02;;;;;;;18.00;7.55;;;7.30;71.70;;;;;;2340526;53;21023;-72
2020/12/02 11:01:28;;;;;;;16.33;7.62;;;7.20;71.70;;;;;;2586589;53;21017;-72
2020/12/02 11:03:55;;;;;;;14.38;7.10;;;7.20;71.80;;;;;;2564764;53;21020;-73
2020/12/02 11:06:56;;;;;;;15.15;7.20;;;7.20;71.80;;;;;;2582366;53;21033;-73
2020/12/02 11:09:33;;;;;;;15.15;7.37;;;7.30;71.80;;;;;;2588340;53;20997;-73
2020/12/02 11:13:36;;;;;;;13.90;7.30;;;7.30;71.90;;;;;;2334561;53;20944;-73
2020/12/02 11:16:08;;;;;;;13.93;7.12;;;7.30;71.50;;;;;;2587750;53;21556;-72
2020/12/02 11:18:46;;;;;;;14.10;6.47;;;7.30;71.90;;;;;;2586879;53;21025;-73
2020/12/02 11:23:23;;;;;;;16.70;7.57;;;7.40;72.70;;;;;;2340953;53;21016;-72
2020/12/02 11:26:49;;;;;;;13.38;6.68;;;7.40;71.40;;;;;;2588198;53;21008;-73
2020/12/02 11:29:16;;;;;;;15.20;7.07;;;7.40;71.50;;;;;;2589074;53;21080;-73
2020/12/02 11:33:52;;;;;;;14.45;7.72;;;7.40;71.30;;;;;;2587188;53;21589;-73
2020/12/02 11:42:29;;;;;;;14.23;6.90;;;7.40;70.80;;;;;;2587875;53;21104;-73
2020/12/02 11:45:04;;;;;;;14.30;6.50;;;7.40;70.80;;;;;;2586886;53;20964;-72
2020/12/02 11:47:40;;;;;;;13.95;6.45;;;7.40;71.40;;;;;;2344015;53;21770;-72
2020/12/02 11:50:17;;;;;;;13.95;7.28;;;7.50;71.50;;;;;;2339903;53;21882;-72
2020/12/02 11:53:03;;;;;;;14.70;7.07;;;7.50;71.50;;;;;;2344417;53;21529;-73
2020/12/02 11:55:30;;;;;;;14.40;7.40;;;7.40;71.30;;;;;;2585763;53;21020;-72
2020/12/02 11:57:57;;;;;;;13.75;6.82;;;7.40;71.50;;;;;;2319292;53;21812;-72
2020/12/02 12:00:23;;;;;;;14.05;7.03;;;7.50;71.50;;;;;;2583107;53;21080;-72
2020/12/02 12:03:23;;;;;;;17.15;8.05;;;7.50;71.60;;;;;;2584589;53;21619;-73
2020/12/02 12:06:10;;;;;;;13.18;7.28;;;7.50;71.50;;;;;;2583150;53;21007;-73
2020/12/02 12:09:08;;;;;;;16.67;7.47;;;7.50;71.30;;;;;;2338354;53;20944;-73
2020/12/02 12:11:35;;;;;;;14.10;6.87;;;7.50;71.50;;;;;;2582361;53;20942;-72
2020/12/02 12:15:39;;;;;;;12.55;6.28;;;7.50;71.60;;;;;;2574554;53;21864;-72
2020/12/02 12:21:19;;;;;;;15.38;6.97;;;7.50;71.20;;;;;;2579257;53;21016;-73
2020/12/02 12:23:58;;;;;;;12.13;6.10;;;7.60;71.60;;;;;;2579805;53;20957;-72
2020/12/02 12:26:29;;;;;;;12.75;7.40;;;7.60;71.60;;;;;;2583418;53;21833;-72
2020/12/02 12:28:55;;;;;;;14.35;6.78;;;7.70;71.80;;;;;;2336696;53;21720;-72
2020/12/02 12:38:23;;;;;;;14.43;7.43;;;7.60;71.70;;;;;;2334308;53;20968;-72
2020/12/02 12:41:00;;;;;;;9.85;5.43;;;7.80;71.20;;;;;;2575907;53;20996;-73
2020/12/02 12:43:30;;;;;;;12.37;6.25;;;7.80;71.50;;;;;;2332432;53;20969;-72
2020/12/02 12:46:03;;;;;;;10.82;5.90;;;7.80;71.70;;;;;;2322675;54;21602;-72
2020/12/02 12:48:29;;;;;;;11.18;6.20;;;7.80;71.80;;;;;;2570799;53;20952;-72
2020/12/02 12:50:56;;;;;;;13.13;7.57;;;7.80;71.90;;;;;;2330695;53;20905;-72
2020/12/02 12:53:31;;;;;;;11.35;6.87;;;7.80;71.90;;;;;;2331470;53;21469;-73
2020/12/02 12:55:58;;;;;;;13.02;7.50;;;7.80;71.90;;;;;;2549842;53;20941;-72
2020/12/02 12:58:25;;;;;;;13.55;7.43;;;7.80;72.00;;;;;;2577083;53;21418;-73
2020/12/02 13:00:53;;;;;;;13.07;7.50;;;7.90;72.00;;;;;;2335881;53;20953;-72
2020/12/02 13:03:24;;;;;;;12.50;6.60;;;7.90;72.00;;;;;;2582040;53;21042;-72
2020/12/02 13:06:25;;;;;;;11.23;5.90;;;7.90;71.90;;;;;;2323825;53;20994;-73
2020/12/02 13:09:07;;;;;;;11.73;6.47;;;7.90;71.60;;;;;;2341398;53;20961;-73
2020/12/02 13:12:06;;;;;;;11.32;6.03;;;8.00;71.60;;;;;;2557303;53;20952;-73
2020/12/02 13:15:08;;;;;;;12.37;6.22;;;8.00;71.20;;;;;;2557820;53;21000;-72
2020/12/02 13:17:43;;;;;;;10.85;6.00;;;8.00;70.80;;;;;;2555857;53;20975;-72
2020/12/02 13:20:38;;;;;;;13.00;7.40;;;8.00;71.00;;;;;;2584091;53;21481;-72
2020/12/02 13:23:14;;;;;;;13.20;7.37;;;8.00;70.60;;;;;;2324601;54;21030;-72
2020/12/02 13:25:53;;;;;;;11.57;6.43;;;8.00;70.60;;;;;;2573329;53;21092;-72
2020/12/02 13:28:24;;;;;;;13.98;7.35;;;7.90;70.50;;;;;;2581479;53;20949;-72
2020/12/02 13:31:19;;;;;;;12.70;6.43;;;7.90;70.50;;;;;;2578880;53;20951;-72
2020/12/02 13:33:52;;;;;;;12.80;7.40;;;7.90;71.00;;;;;;2578134;53;20976;-72
2020/12/02 13:36:35;;;;;;;13.23;7.68;;;7.80;70.10;;;;;;2581447;53;22128;-72
2020/12/02 13:39:06;;;;;;;13.55;7.37;;;7.80;69.90;;;;;;2335970;53;20924;-72
2020/12/02 13:41:42;;;;;;;14.98;7.82;;;7.80;70.00;;;;;;2337672;53;21841;-72
2020/12/02 13:44:09;;;;;;;14.38;8.15;;;7.70;69.90;;;;;;2319073;54;21108;-73
2020/12/02 13:46:35;;;;;;;12.73;7.03;;;7.70;69.90;;;;;;2581572;53;21037;-72
2020/12/02 13:49:14;;;;;;;14.82;7.68;;;7.60;69.80;;;;;;2340560;53;20971;-72
2020/12/02 13:51:48;;;;;;;17.05;9.27;;;7.60;69.80;;;;;;2582907;53;21056;-72
2020/12/02 13:55:59;;;;;;;16.95;8.48;;;7.60;69.90;;;;;;2584817;53;21049;-72
2020/12/02 13:58:35;;;;;;;16.08;8.43;;;7.50;69.70;;;;;;2342153;53;20996;-72
2020/12/02 14:02:57;;;;;;;17.35;8.18;;;7.50;70.00;;;;;;2328991;53;20989;-73
2020/12/02 14:05:51;;;;;;;18.90;8.95;;;7.40;70.00;;;;;;2344856;53;20964;-73
2020/12/02 14:08:18;;;;;;;17.95;8.65;;;7.40;70.00;;;;;;2337052;53;21084;-73
2020/12/02 14:10:44;;;;;;;17.33;8.27;;;7.40;70.10;;;;;;2570618;53;21028;-73
2020/12/02 14:13:11;;;;;;;16.95;8.85;;;7.30;70.10;;;;;;2342985;53;20960;-73
2020/12/02 14:15:38;;;;;;;18.65;9.20;;;7.30;70.30;;;;;;2583343;53;21075;-73
2020/12/02 14:18:06;;;;;;;18.80;9.85;;;7.30;70.30;;;;;;2582303;53;20968;-73
2020/12/02 14:20:34;;;;;;;16.15;8.77;;;7.20;70.20;;;;;;2584480;53;22408;-73
2020/12/02 14:23:01;;;;;;;18.00;8.93;;;7.20;70.30;;;;;;2335233;53;21024;-73
2020/12/02 14:25:27;;;;;;;14.77;8.43;;;7.20;70.30;;;;;;2580053;53;20961;-73
2020/12/02 14:27:55;;;;;;;18.48;9.40;;;7.20;70.30;;;;;;2337171;53;21051;-74
2020/12/02 14:30:26;;;;;;;17.40;9.63;;;7.20;70.30;;;;;;2577942;53;21042;-72
2020/12/02 14:32:53;;;;;;;17.42;9.05;;;7.20;70.30;;;;;;2575179;53;20945;-73